createdAt,value
2023-03-30T00:00:42.894Z,20.18
2023-03-30T00:03:09.594Z,20.17
2023-03-30T00:05:36.157Z,20.17
2023-03-30T00:08:02.576Z,20.16
2023-03-30T00:10:29.324Z,20.15
2023-03-30T00:12:56.105Z,20.19
2023-03-30T00:15:22.703Z,20.20
2023-03-30T00:17:49.120Z,20.20
2023-03-30T00:20:15.670Z,20.17
2023-03-30T00:22:42.045Z,20.16
2023-03-30T00:25:08.934Z,20.15
2023-03-30T00:27:36.050Z,20.15
2023-03-30T00:30:02.865Z,20.14
2023-03-30T00:32:29.247Z,20.13
2023-03-30T00:34:55.614Z,20.12
2023-03-30T00:37:21.978Z,20.12
2023-03-30T00:39:48.487Z,20.12
2023-03-30T00:42:16.056Z,20.12
2023-03-30T00:45:01.380Z,20.10
2023-03-30T00:47:28.104Z,20.09
2023-03-30T00:49:54.602Z,20.09
2023-03-30T00:52:24.812Z,20.09
2023-03-30T00:54:51.698Z,20.08
2023-03-30T00:57:18.084Z,20.08
2023-03-30T00:59:44.483Z,20.08
2023-03-30T01:02:10.926Z,20.08
2023-03-30T01:04:37.588Z,20.06
2023-03-30T01:07:04.281Z,20.06
2023-03-30T01:09:30.603Z,20.06
2023-03-30T01:11:56.968Z,20.06
2023-03-30T01:14:24.366Z,20.05
2023-03-30T01:16:56.714Z,20.07
2023-03-30T01:19:43.605Z,20.06
2023-03-30T01:22:36.776Z,20.06
2023-03-30T01:25:21.740Z,20.04
2023-03-30T01:28:07.199Z,20.04
2023-03-30T01:30:52.130Z,20.04
2023-03-30T01:33:37.320Z,20.04
2023-03-30T01:36:22.328Z,20.02
2023-03-30T01:39:07.749Z,20.02
2023-03-30T01:41:35.644Z,20.02
2023-03-30T01:44:04.276Z,20.02
2023-03-30T01:46:31.581Z,20.01
2023-03-30T01:49:10.753Z,20.01
2023-03-30T01:51:39.084Z,20.00
2023-03-30T02:34:39.156Z,19.95
2023-03-30T02:37:09.935Z,19.95
2023-03-30T02:39:42.428Z,19.95
2023-03-30T02:42:16.615Z,19.95
2023-03-30T02:44:50.267Z,19.95
2023-03-30T02:47:19.582Z,19.95
2023-03-30T02:50:15.511Z,19.96
2023-03-30T02:52:59.153Z,19.98
2023-03-30T02:55:34.601Z,20.01
2023-03-30T02:58:31.955Z,20.04
2023-03-30T03:01:19.288Z,20.06
2023-03-30T03:03:58.200Z,20.06
2023-03-30T03:06:26.087Z,20.08
2023-03-30T03:08:54.768Z,20.10
2023-03-30T03:11:24.329Z,20.10
2023-03-30T03:13:50.664Z,20.08
2023-03-30T03:16:17.131Z,20.09
2023-03-30T03:19:01.424Z,20.11
2023-03-30T03:21:28.312Z,20.11
2023-03-30T03:23:54.659Z,20.12
2023-03-30T03:26:22.743Z,20.12
2023-03-30T03:28:49.346Z,20.13
2023-03-30T03:31:15.769Z,20.15
2023-03-30T03:33:42.212Z,20.15
2023-03-30T03:36:37.999Z,20.16
2023-03-30T03:39:04.420Z,20.15
2023-03-30T03:41:31.178Z,20.15
2023-03-30T03:43:57.548Z,20.15
2023-03-30T03:46:24.758Z,20.16
2023-03-30T03:48:51.140Z,20.15
2023-03-30T03:51:17.503Z,20.14
2023-03-30T03:53:43.865Z,20.15
2023-03-30T03:56:12.679Z,20.16
2023-03-30T03:58:39.037Z,20.16
2023-03-30T04:01:07.111Z,20.17
2023-03-30T04:03:33.696Z,20.17
2023-03-30T04:06:00.609Z,20.17
2023-03-30T04:08:28.510Z,20.18
2023-03-30T04:10:57.283Z,20.19
2023-03-30T04:13:32.927Z,20.20
2023-03-30T04:16:15.446Z,20.20
2023-03-30T04:19:00.617Z,20.19
2023-03-30T04:21:52.959Z,20.20
2023-03-30T04:24:52.748Z,20.18
2023-03-30T04:27:42.633Z,20.18
2023-03-30T04:30:30.552Z,20.19
2023-03-30T04:33:35.014Z,20.19
2023-03-30T04:36:32.716Z,20.19
2023-03-30T04:39:18.129Z,20.20
2023-03-30T04:42:07.350Z,20.21
2023-03-30T04:44:47.236Z,20.23
2023-03-30T04:47:43.007Z,20.23
2023-03-30T04:50:35.132Z,20.23
2023-03-30T04:53:19.886Z,20.25
2023-03-30T04:56:04.942Z,20.25
2023-03-30T04:58:38.537Z,20.24
2023-03-30T05:01:22.588Z,20.24
2023-03-30T05:04:06.454Z,20.23
2023-03-30T05:06:51.629Z,20.22
2023-03-30T05:09:40.800Z,20.22
2023-03-30T05:12:25.700Z,20.23
2023-03-30T05:15:06.511Z,20.23
2023-03-30T05:18:09.079Z,20.25
2023-03-30T05:20:48.976Z,20.24
2023-03-30T05:23:27.195Z,20.28
2023-03-30T05:26:16.636Z,20.27
2023-03-30T05:28:57.013Z,20.27
2023-03-30T05:31:36.592Z,20.26
2023-03-30T05:34:05.513Z,20.27
2023-03-30T05:36:44.375Z,20.26
2023-03-30T05:39:29.063Z,20.26
2023-03-30T05:42:30.983Z,20.27
2023-03-30T05:45:16.022Z,20.25
2023-03-30T05:48:17.633Z,20.25
2023-03-30T05:50:57.537Z,20.27
2023-03-30T05:53:33.965Z,20.28
2023-03-30T05:56:24.977Z,20.29
2023-03-30T05:58:56.155Z,20.29
2023-03-30T06:01:47.434Z,20.33
2023-03-30T06:04:13.895Z,19.54
2023-03-30T06:06:41.949Z,19.35
2023-03-30T06:09:08.830Z,19.79
2023-03-30T06:11:36.235Z,19.92
2023-03-30T06:14:11.810Z,19.97
2023-03-30T06:16:40.343Z,18.48
2023-03-30T06:19:07.909Z,17.79
2023-03-30T06:21:34.394Z,17.69
2023-03-30T06:24:09.450Z,17.58
2023-03-30T06:26:38.342Z,17.23
2023-03-30T06:29:04.690Z,17.79
2023-03-30T06:31:31.477Z,18.46
2023-03-30T06:34:20.626Z,18.31
2023-03-30T06:36:47.048Z,18.09
2023-03-30T06:39:15.840Z,18.00
2023-03-30T06:41:42.432Z,17.74
2023-03-30T06:44:24.007Z,17.14
2023-03-30T06:46:50.613Z,18.13
2023-03-30T06:49:16.934Z,19.19
2023-03-30T06:51:43.464Z,19.63
2023-03-30T06:54:11.156Z,19.71
2023-03-30T06:56:42.930Z,19.89
2023-03-30T06:59:12.364Z,19.99
2023-03-30T07:01:57.361Z,20.01
2023-03-30T07:04:47.113Z,20.07
2023-03-30T07:07:32.324Z,19.88
2023-03-30T07:09:58.883Z,20.29
2023-03-30T07:12:25.424Z,20.38
2023-03-30T07:14:51.972Z,20.42
2023-03-30T07:17:18.360Z,20.50
2023-03-30T07:19:44.746Z,20.45
2023-03-30T07:22:11.407Z,20.28
2023-03-30T07:24:37.788Z,20.14
2023-03-30T07:27:04.173Z,20.08
2023-03-30T07:29:31.130Z,20.04
2023-03-30T07:31:57.553Z,20.03
2023-03-30T07:34:24.039Z,20.00
2023-03-30T07:36:54.811Z,20.03
2023-03-30T07:39:22.364Z,20.02
2023-03-30T07:41:50.714Z,20.05
2023-03-30T07:44:18.001Z,20.02
2023-03-30T07:46:44.438Z,20.02
2023-03-30T07:49:16.980Z,20.02
2023-03-30T07:51:43.359Z,20.04
2023-03-30T07:54:19.213Z,19.44
2023-03-30T07:56:58.960Z,18.92
2023-03-30T07:59:25.502Z,19.32
2023-03-30T08:01:56.129Z,19.70
2023-03-30T08:04:38.059Z,19.85
2023-03-30T08:07:04.737Z,19.90
2023-03-30T08:09:31.214Z,20.00
2023-03-30T08:11:57.666Z,20.04
2023-03-30T08:14:26.469Z,20.14
2023-03-30T08:16:53.449Z,20.17
2023-03-30T08:19:20.475Z,20.37
2023-03-30T08:21:47.191Z,20.54
2023-03-30T08:24:13.584Z,20.62
2023-03-30T08:26:39.933Z,20.66
2023-03-30T08:29:07.092Z,20.72
2023-03-30T08:31:33.562Z,20.75
2023-03-30T08:34:00.127Z,20.79
2023-03-30T08:36:26.586Z,20.81
2023-03-30T08:38:54.375Z,20.84
2023-03-30T08:41:20.642Z,20.86
2023-03-30T08:43:48.825Z,20.91
2023-03-30T08:46:15.741Z,20.98
2023-03-30T08:48:42.953Z,21.03
2023-03-30T08:51:19.409Z,21.07
2023-03-30T08:53:45.729Z,21.14
2023-03-30T08:56:20.672Z,21.30
2023-03-30T08:58:46.961Z,21.39
2023-03-30T09:01:18.574Z,21.41
2023-03-30T09:04:05.264Z,21.29
2023-03-30T09:06:39.960Z,21.20
2023-03-30T09:09:07.337Z,21.30
2023-03-30T09:11:34.054Z,21.40
2023-03-30T09:14:02.881Z,21.45
2023-03-30T09:16:33.625Z,21.44
2023-03-30T09:19:04.460Z,21.33
2023-03-30T09:21:31.608Z,21.47
2023-03-30T09:23:58.905Z,21.51
2023-03-30T09:26:34.546Z,21.56
2023-03-30T09:29:06.367Z,21.65
2023-03-30T09:31:37.737Z,21.67
2023-03-30T09:34:07.875Z,21.71
2023-03-30T09:36:39.447Z,21.61
2023-03-30T09:39:09.310Z,21.53
2023-03-30T09:41:41.446Z,21.53
2023-03-30T09:44:11.307Z,21.53
2023-03-30T09:46:37.675Z,21.51
2023-03-30T09:49:14.415Z,21.56
2023-03-30T09:51:54.406Z,21.61
2023-03-30T09:54:21.319Z,21.45
2023-03-30T09:56:51.332Z,21.46
2023-03-30T09:59:22.205Z,21.38
2023-03-30T10:01:48.560Z,21.27
2023-03-30T10:04:16.581Z,21.22
2023-03-30T10:06:47.066Z,21.23
2023-03-30T10:09:13.423Z,21.24
2023-03-30T10:11:43.735Z,21.25
2023-03-30T10:14:28.884Z,21.27
2023-03-30T10:16:56.035Z,21.31
2023-03-30T10:19:22.416Z,21.56
2023-03-30T10:21:48.742Z,21.63
2023-03-30T10:24:15.032Z,21.61
2023-03-30T10:26:45.048Z,21.37
2023-03-30T10:29:16.243Z,21.30
2023-03-30T10:31:43.155Z,21.21
2023-03-30T10:34:16.925Z,21.07
2023-03-30T10:36:43.269Z,20.93
2023-03-30T10:39:28.201Z,20.95
2023-03-30T10:41:54.781Z,20.96
2023-03-30T10:44:34.859Z,20.87
2023-03-30T10:47:15.197Z,20.87
2023-03-30T10:49:44.744Z,21.32
2023-03-30T10:52:18.254Z,21.50
2023-03-30T10:54:46.937Z,21.42
2023-03-30T10:57:14.061Z,21.28
2023-03-30T10:59:50.248Z,21.30
2023-03-30T11:02:22.430Z,21.12
2023-03-30T11:04:49.968Z,21.18
2023-03-30T11:07:17.565Z,21.40
2023-03-30T11:09:51.286Z,21.43
2023-03-30T11:12:20.440Z,21.47
2023-03-30T11:14:47.733Z,21.56
2023-03-30T11:17:17.711Z,21.67
2023-03-30T11:19:45.499Z,21.25
2023-03-30T11:22:17.178Z,21.11
2023-03-30T11:24:43.505Z,21.09
2023-03-30T11:27:39.451Z,20.92
2023-03-30T11:30:09.501Z,20.92
2023-03-30T11:32:43.557Z,21.18
2023-03-30T11:35:27.059Z,21.32
2023-03-30T11:37:53.416Z,21.40
2023-03-30T11:40:26.766Z,21.19
2023-03-30T11:42:53.769Z,21.34
2023-03-30T11:45:20.638Z,21.42
2023-03-30T11:48:05.401Z,21.38
2023-03-30T11:50:35.385Z,21.29
2023-03-30T11:53:06.429Z,21.38
2023-03-30T11:55:41.133Z,21.30
2023-03-30T11:58:14.636Z,21.37
2023-03-30T12:00:43.341Z,21.41
2023-03-30T12:03:13.402Z,21.56
2023-03-30T12:05:40.649Z,21.73
2023-03-30T12:08:25.865Z,21.90
2023-03-30T12:10:55.326Z,21.95
2023-03-30T12:13:21.655Z,22.01
2023-03-30T12:16:00.871Z,22.11
2023-03-30T12:18:27.237Z,22.08
2023-03-30T12:20:55.945Z,22.12
2023-03-30T12:23:22.215Z,22.24
2023-03-30T12:25:51.625Z,22.31
2023-03-30T12:28:18.002Z,22.02
2023-03-30T12:31:02.590Z,22.02
2023-03-30T12:33:29.801Z,21.75
2023-03-30T12:35:57.163Z,21.56
2023-03-30T12:38:25.521Z,21.61
2023-03-30T12:40:55.761Z,21.60
2023-03-30T12:43:24.238Z,21.62
2023-03-30T12:46:02.261Z,21.66
2023-03-30T12:48:44.097Z,21.66
2023-03-30T12:51:21.841Z,21.71
2023-03-30T12:54:03.311Z,22.05
2023-03-30T12:56:45.003Z,22.05
2023-03-30T12:59:24.253Z,22.23
2023-03-30T13:01:59.290Z,22.13
2023-03-30T13:04:26.564Z,21.82
2023-03-30T13:06:53.803Z,21.88
2023-03-30T13:09:20.086Z,22.02
2023-03-30T13:11:47.006Z,21.85
2023-03-30T13:14:25.344Z,21.57
2023-03-30T13:16:52.154Z,21.52
2023-03-30T13:19:22.671Z,21.57
2023-03-30T13:21:49.496Z,21.63
2023-03-30T13:24:42.122Z,21.75
2023-03-30T13:27:14.347Z,21.80
2023-03-30T13:29:41.011Z,21.66
2023-03-30T13:32:07.249Z,21.65
2023-03-30T13:34:38.462Z,21.66
2023-03-30T13:37:23.527Z,21.62
2023-03-30T13:39:55.496Z,21.55
2023-03-30T13:42:32.953Z,21.80
2023-03-30T13:45:08.182Z,21.56
2023-03-30T13:47:47.248Z,21.48
2023-03-30T13:50:16.079Z,21.47
2023-03-30T13:52:46.038Z,21.75
2023-03-30T13:55:17.015Z,21.78
2023-03-30T13:57:44.191Z,21.83
2023-03-30T14:00:33.033Z,21.90
2023-03-30T14:03:00.749Z,22.00
2023-03-30T14:05:27.814Z,22.18
2023-03-30T14:07:57.793Z,22.14
2023-03-30T14:10:24.185Z,22.12
2023-03-30T14:12:54.064Z,22.12
2023-03-30T14:15:24.361Z,22.09
2023-03-30T14:17:52.113Z,22.16
2023-03-30T14:20:21.412Z,21.94
2023-03-30T14:22:47.803Z,21.69
2023-03-30T14:25:26.352Z,21.80
2023-03-30T14:27:52.703Z,21.94
2023-03-30T14:30:23.057Z,21.99
2023-03-30T14:33:08.374Z,22.07
2023-03-30T14:35:35.312Z,22.16
2023-03-30T14:38:13.812Z,22.15
2023-03-30T14:40:43.103Z,22.16
2023-03-30T14:43:13.136Z,22.01
2023-03-30T14:45:39.507Z,21.81
2023-03-30T14:48:06.152Z,21.70
2023-03-30T14:50:32.490Z,21.59
2023-03-30T14:52:58.803Z,21.52
2023-03-30T14:55:25.279Z,21.47
2023-03-30T14:57:51.616Z,21.54
2023-03-30T15:00:20.383Z,21.89
2023-03-30T15:02:47.591Z,22.06
2023-03-30T15:05:16.526Z,22.02
2023-03-30T15:07:42.851Z,21.88
2023-03-30T15:10:17.592Z,21.83
2023-03-30T15:12:43.911Z,21.80
2023-03-30T15:15:11.935Z,22.01
2023-03-30T15:17:38.298Z,22.07
2023-03-30T15:20:07.519Z,22.15
2023-03-30T15:22:35.020Z,22.10
2023-03-30T15:25:02.081Z,21.99
2023-03-30T15:27:28.419Z,21.96
2023-03-30T15:29:55.207Z,21.92
2023-03-30T15:32:36.074Z,21.72
2023-03-30T15:35:16.957Z,21.70
2023-03-30T15:37:51.684Z,21.57
2023-03-30T15:40:30.387Z,21.51
2023-03-30T15:43:12.814Z,21.46
2023-03-30T15:45:39.167Z,21.41
2023-03-30T15:48:08.870Z,21.44
2023-03-30T15:50:35.363Z,21.67
2023-03-30T15:53:01.854Z,21.73
2023-03-30T15:55:31.809Z,21.79
2023-03-30T15:57:58.170Z,21.79
2023-03-30T16:00:25.937Z,21.72
2023-03-30T16:02:57.634Z,21.65
2023-03-30T16:05:24.777Z,21.69
2023-03-30T16:07:51.153Z,21.65
2023-03-30T16:10:20.652Z,21.72
2023-03-30T16:12:47.119Z,21.74
2023-03-30T16:15:17.088Z,21.84
2023-03-30T16:17:43.439Z,21.93
2023-03-30T16:20:17.045Z,21.90
2023-03-30T16:22:43.423Z,21.73
2023-03-30T16:25:09.800Z,21.68
2023-03-30T16:27:36.786Z,21.80
2023-03-30T16:30:10.439Z,21.84
2023-03-30T16:32:36.807Z,21.69
2023-03-30T16:35:03.255Z,21.77
2023-03-30T16:37:29.596Z,21.84
2023-03-30T16:39:56.048Z,21.94
2023-03-30T16:42:22.425Z,21.93
2023-03-30T16:44:48.755Z,21.81
2023-03-30T16:47:15.567Z,21.75
2023-03-30T16:49:41.903Z,21.59
2023-03-30T16:52:08.750Z,21.62
2023-03-30T16:54:35.186Z,21.56
2023-03-30T16:57:01.785Z,21.44
2023-03-30T16:59:31.387Z,21.41
2023-03-30T17:01:57.728Z,21.46
2023-03-30T17:04:24.065Z,21.48
2023-03-30T17:06:50.445Z,21.49
2023-03-30T17:09:17.615Z,21.45
2023-03-30T17:11:44.228Z,21.44
2023-03-30T17:14:10.671Z,21.43
2023-03-30T17:16:37.025Z,21.43
2023-03-30T17:19:03.376Z,21.38
2023-03-30T17:21:29.717Z,21.34
2023-03-30T17:23:56.064Z,21.26
2023-03-30T17:26:22.444Z,21.30
2023-03-30T17:28:48.860Z,21.24
2023-03-30T17:31:16.682Z,21.21
2023-03-30T17:33:43.265Z,21.17
2023-03-30T17:36:16.189Z,21.12
2023-03-30T17:38:43.550Z,21.13
2023-03-30T17:41:11.090Z,21.13
2023-03-30T17:43:37.407Z,21.10
2023-03-30T17:46:03.742Z,21.16
2023-03-30T17:48:30.092Z,21.12
2023-03-30T17:50:56.545Z,20.87
2023-03-30T17:53:23.332Z,20.48
2023-03-30T17:55:51.766Z,20.46
2023-03-30T17:58:22.211Z,20.25
2023-03-30T18:00:48.631Z,20.17
2023-03-30T18:03:15.706Z,20.05
2023-03-30T18:05:42.122Z,20.06
2023-03-30T18:08:14.468Z,20.22
2023-03-30T18:10:40.829Z,20.04
2023-03-30T18:13:07.177Z,20.01
2023-03-30T18:15:33.535Z,20.00
2023-03-30T18:18:00.373Z,20.26
2023-03-30T18:20:27.584Z,20.31
2023-03-30T18:22:53.906Z,20.25
2023-03-30T18:25:31.615Z,20.26
2023-03-30T18:27:58.907Z,20.34
2023-03-30T18:30:26.623Z,20.53
2023-03-30T18:32:52.989Z,20.63
2023-03-30T18:35:19.487Z,20.64
2023-03-30T18:37:45.802Z,20.76
2023-03-30T18:40:14.338Z,20.79
2023-03-30T18:42:45.407Z,20.79
2023-03-30T18:45:14.220Z,20.80
2023-03-30T18:47:40.621Z,20.81
2023-03-30T18:50:36.233Z,20.80
2023-03-30T18:53:02.967Z,20.81
2023-03-30T18:55:30.468Z,20.73
2023-03-30T18:57:57.848Z,20.77
2023-03-30T19:00:26.222Z,20.76
2023-03-30T19:02:52.800Z,20.76
2023-03-30T19:05:19.463Z,20.76
2023-03-30T19:07:45.806Z,20.75
2023-03-30T19:10:13.148Z,20.73
2023-03-30T19:12:39.483Z,20.71
2023-03-30T19:15:06.060Z,20.71
2023-03-30T19:17:32.442Z,20.71
2023-03-30T19:19:58.811Z,20.68
2023-03-30T19:22:25.256Z,20.68
2023-03-30T19:24:51.585Z,20.67
2023-03-30T19:27:17.899Z,20.64
2023-03-30T19:29:44.225Z,20.70
2023-03-30T19:32:11.666Z,20.71
2023-03-30T19:34:38.006Z,20.70
2023-03-30T19:37:04.338Z,20.68
2023-03-30T19:39:30.881Z,20.66
2023-03-30T19:41:57.200Z,20.66
2023-03-30T19:44:23.511Z,20.64
2023-03-30T19:46:49.840Z,20.65
2023-03-30T19:49:16.167Z,20.64
2023-03-30T19:51:42.490Z,20.66
2023-03-30T19:54:09.046Z,20.67
2023-03-30T19:56:35.385Z,20.67
2023-03-30T19:59:01.812Z,20.68
2023-03-30T20:01:28.182Z,20.70
2023-03-30T20:03:54.576Z,20.71
2023-03-30T20:06:20.944Z,20.72
2023-03-30T20:08:47.284Z,20.71
2023-03-30T20:11:13.673Z,20.72
2023-03-30T20:13:45.312Z,20.71
2023-03-30T20:16:14.360Z,20.70
2023-03-30T20:18:40.790Z,20.70
2023-03-30T20:21:07.590Z,20.70
2023-03-30T20:23:34.031Z,20.70
2023-03-30T20:26:02.859Z,20.71
2023-03-30T20:28:29.194Z,20.71
2023-03-30T20:30:56.004Z,20.71
2023-03-30T20:33:22.544Z,20.71
2023-03-30T20:35:52.101Z,20.71
2023-03-30T20:38:18.508Z,20.70
2023-03-30T20:40:57.692Z,20.70
2023-03-30T20:43:27.009Z,20.69
2023-03-30T20:46:02.525Z,20.69
2023-03-30T20:48:33.551Z,20.67
2023-03-30T20:51:01.730Z,20.68
2023-03-30T20:53:28.901Z,20.66
2023-03-30T20:55:55.901Z,20.65
2023-03-30T20:58:22.458Z,20.65
2023-03-30T21:00:52.083Z,20.66
2023-03-30T21:03:19.552Z,20.69
2023-03-30T21:05:46.028Z,20.69
2023-03-30T21:08:12.410Z,20.70
2023-03-30T21:10:42.571Z,20.70
2023-03-30T21:13:08.949Z,20.68
2023-03-30T21:15:35.502Z,20.67
2023-03-30T21:18:01.879Z,20.66
2023-03-30T21:20:28.275Z,20.65
2023-03-30T21:22:54.601Z,20.64
2023-03-30T21:25:20.936Z,20.63
2023-03-30T21:27:47.298Z,20.63
2023-03-30T21:30:14.335Z,20.62
2023-03-30T21:32:40.712Z,20.62
2023-03-30T21:35:07.104Z,20.61
2023-03-30T21:37:33.470Z,20.61
2023-03-30T21:39:59.811Z,20.60
2023-03-30T21:42:26.189Z,20.60
2023-03-30T21:44:52.587Z,20.59
2023-03-30T21:47:18.936Z,20.57
2023-03-30T21:49:45.271Z,20.57
2023-03-30T21:52:11.779Z,20.57
2023-03-30T21:54:38.150Z,20.56
2023-03-30T21:57:05.671Z,20.54
2023-03-30T21:59:32.067Z,20.54
2023-03-30T22:01:58.438Z,20.53
2023-03-30T22:04:24.780Z,20.52
2023-03-30T22:06:51.531Z,20.52
2023-03-30T22:09:17.889Z,20.51
2023-03-30T22:11:44.254Z,20.50
2023-03-30T22:14:10.657Z,20.49
2023-03-30T22:16:37.097Z,20.49
2023-03-30T22:19:04.170Z,20.47
2023-03-30T22:21:34.046Z,20.48
2023-03-30T22:24:01.557Z,20.46
2023-03-30T22:26:28.096Z,20.46
2023-03-30T22:28:54.882Z,20.44
2023-03-30T22:31:21.366Z,20.43
2023-03-30T22:33:48.032Z,20.43
2023-03-30T22:36:19.210Z,20.43
2023-03-30T22:38:46.422Z,20.42
2023-03-30T22:41:12.819Z,20.42
2023-03-30T22:43:39.145Z,20.42
2023-03-30T22:46:06.101Z,20.42
2023-03-30T22:48:32.629Z,20.40
2023-03-30T22:51:02.390Z,20.40
2023-03-30T22:53:29.226Z,20.39
2023-03-30T22:55:55.586Z,20.40
2023-03-30T22:58:21.995Z,20.39
2023-03-30T23:00:48.418Z,20.40
2023-03-30T23:03:14.858Z,20.40
2023-03-30T23:05:41.266Z,20.39
2023-03-30T23:08:09.265Z,20.38
2023-03-30T23:10:37.448Z,20.38
2023-03-30T23:13:04.237Z,20.37
2023-03-30T23:15:30.564Z,20.36
2023-03-30T23:17:56.926Z,20.36
2023-03-30T23:20:23.285Z,20.35
2023-03-30T23:22:49.623Z,20.35
2023-03-30T23:25:16.449Z,20.35
2023-03-30T23:27:42.772Z,20.34
2023-03-30T23:30:09.299Z,20.34
2023-03-30T23:32:35.759Z,20.34
2023-03-30T23:35:02.243Z,20.33
2023-03-30T23:37:30.113Z,20.33
2023-03-30T23:39:58.822Z,20.32
2023-03-30T23:42:25.626Z,20.31
2023-03-30T23:44:51.952Z,20.32
2023-03-30T23:47:18.427Z,20.31
2023-03-30T23:49:44.764Z,20.32
2023-03-30T23:52:11.098Z,20.31
2023-03-30T23:54:40.720Z,20.31
2023-03-30T23:57:07.639Z,20.31
2023-03-30T23:59:34.369Z,20.30
